Terminal Aerodrome Forecast
Issued by NWS

Home | Current Version | Previous Version | Text Only | Print | Product List | Glossary On
Versions: 1 2 3 4 5 6 7 8 9 10 11 12 13 14 15 16 17
573
FTUS45 KPSR 191720
TAFIPL
TAF
KIPL 191720Z 1918/2018 VRB03KT 3SM BR FEW005 SCT030
      TEMPO 1918/1919 1/2SM FG VV005
     FM192000 24012KT P6SM SCT040
     FM200400 26005KT P6SM FEW050 BKN200
     FM201500 15004KT P6SM BKN200=

USA.gov is the U.S. government's official web portal to all federal, state and local government web resources and services.